Time;durP1;ratioP1;P1;durP2;ratioP2;P2;SDS_P1;SDS_P2;PMS_P1;PMS_P2;Temp;Humidity;BMP_temperature;BMP_pressure;BME280_temperature;BME280_humidity;BME280_pressure;Samples;Min_cycle;Max_cycle;Signal;HPM_P1;HPM_P2
2022/01/24 00:00:36;;;;;;;;;;;;;;;2.65;82.85;100702.34;5115089;28;20381;-68
2022/01/24 00:03:03;;;;;;;;;;;;;;;2.69;82.54;100686.00;5115235;28;19924;-66
2022/01/24 00:05:29;;;;;;;;;;;;;;;2.87;81.98;100690.69;5114637;28;19924;-69
2022/01/24 00:07:56;;;;;;;;;;;;;;;3.13;80.40;100678.91;5115021;28;19924;-62
2022/01/24 00:10:26;;;;;;;;;;;;;;;3.20;80.06;100675.31;5115907;28;19924;-68
2022/01/24 00:13:09;;;;;;;;;;;;;;;3.19;79.92;100677.06;5115478;28;19931;-67
2022/01/24 00:15:53;;;;;;;;;;;;;;;3.06;80.33;100683.41;5114964;28;20308;-66
2022/01/24 00:18:29;;;;;;;;;;;;;;;3.20;80.23;100675.31;5114881;28;20362;-67
2022/01/24 00:26:46;;;;;;;;;;;;;;;3.07;80.25;100684.22;5115110;28;19968;-69
2022/01/24 00:29:13;;;;;;;;;;;;;;;3.08;80.32;100686.75;5114927;28;19923;-67
2022/01/24 00:31:40;;;;;;;;;;;;;;;2.91;81.13;100682.03;5114525;28;19928;-69
2022/01/24 00:34:07;;;;;;;;;;;;;;;2.84;81.42;100681.34;5114519;28;20306;-67
2022/01/24 00:36:33;;;;;;;;;;;;;;;3.21;79.74;100688.16;5114547;28;20390;-69
2022/01/24 00:39:00;;;;;;;;;;;;;;;3.26;79.61;100672.56;5114569;28;19924;-68
2022/01/24 00:41:28;;;;;;;;;;;;;;;3.54;78.36;100662.41;5114751;28;20029;-68
2022/01/24 00:44:14;;;;;;;;;;;;;;;3.53;78.31;100662.47;5114693;28;19947;-69
2022/01/24 00:46:47;;;;;;;;;;;;;;;3.39;78.94;100657.66;5114580;28;20295;-69
2022/01/24 00:49:34;;;;;;;;;;;;;;;3.32;78.88;100644.16;5114301;28;19923;-67
2022/01/24 00:54:47;;;;;;;;;;;;;;;3.11;79.62;100636.97;5114128;28;19930;-68
2022/01/24 00:57:15;;;;;;;;;;;;;;;3.05;79.83;100631.13;5114317;28;19978;-68
2022/01/24 00:59:42;;;;;;;;;;;;;;;2.99;80.39;100635.59;5114022;28;20258;-69
2022/01/24 01:02:09;;;;;;;;;;;;;;;2.94;80.66;100624.56;5114214;28;19923;-68
2022/01/24 01:04:45;;;;;;;;;;;;;;;2.84;80.82;100626.53;5113882;28;19932;-68
2022/01/24 01:07:12;;;;;;;;;;;;;;;2.79;81.28;100631.78;5111829;28;19931;-67
2022/01/24 01:18:15;;;;;;;;;;;;;;;2.45;82.40;100630.91;5112895;28;19931;-68
2022/01/24 01:20:58;;;;;;;;;;;;;;;2.30;83.11;100635.50;5113756;28;20374;-68
2022/01/24 01:23:25;;;;;;;;;;;;;;;2.15;84.06;100629.00;5113633;28;20370;-68
2022/01/24 01:25:53;;;;;;;;;;;;;;;2.10;84.06;100635.94;5113583;28;19927;-67
2022/01/24 01:28:22;;;;;;;;;;;;;;;2.07;84.81;100638.59;5113708;28;19975;-68
2022/01/24 01:30:52;;;;;;;;;;;;;;;2.12;84.39;100639.34;5113472;28;20436;-68
2022/01/24 01:33:27;;;;;;;;;;;;;;;2.11;84.29;100634.25;5113738;28;19923;-67
2022/01/24 01:36:05;;;;;;;;;;;;;;;2.12;84.21;100630.81;5113570;28;19966;-68
2022/01/24 01:52:34;;;;;;;;;;;;;;;2.09;84.29;100582.94;5113357;28;19976;-64
2022/01/24 01:55:13;;;;;;;;;;;;;;;2.02;84.24;100572.84;5113404;28;19930;-63
2022/01/24 01:57:40;;;;;;;;;;;;;;;2.05;84.18;100565.91;5113172;28;19924;-67
2022/01/24 02:00:09;;;;;;;;;;;;;;;2.12;83.91;100561.50;5113243;28;19928;-64
2022/01/24 02:02:36;;;;;;;;;;;;;;;2.25;84.04;100560.31;5113242;28;19923;-63
2022/01/24 02:05:02;;;;;;;;;;;;;;;2.15;83.95;100541.72;5113186;28;19924;-66
2022/01/24 02:07:29;;;;;;;;;;;;;;;2.12;83.97;100552.06;5113512;28;20389;-68
2022/01/24 02:09:55;;;;;;;;;;;;;;;2.20;83.86;100533.91;5113770;28;20353;-66
2022/01/24 02:12:25;;;;;;;;;;;;;;;2.16;84.12;100534.91;5113241;28;19928;-64
2022/01/24 02:14:57;;;;;;;;;;;;;;;2.12;84.00;100535.84;5113188;28;19935;-66
2022/01/24 02:17:34;;;;;;;;;;;;;;;2.12;84.33;100533.25;5113155;28;19924;-62
2022/01/24 02:20:12;;;;;;;;;;;;;;;2.13;84.01;100533.25;5113079;28;19923;-68
2022/01/24 02:22:49;;;;;;;;;;;;;;;2.01;84.59;100530.13;5112712;28;20324;-68
2022/01/24 02:25:26;;;;;;;;;;;;;;;1.92;84.47;100526.03;5112959;28;19924;-68
2022/01/24 02:27:57;;;;;;;;;;;;;;;1.89;85.14;100521.81;5112877;28;19931;-67
2022/01/24 02:33:05;;;;;;;;;;;;;;;1.73;85.68;100515.34;5113692;28;20370;-66
2022/01/24 02:35:32;;;;;;;;;;;;;;;1.66;85.95;100514.63;5117307;28;19931;-68
2022/01/24 02:38:03;;;;;;;;;;;;;;;1.50;86.73;100514.13;5116932;28;19931;-69
2022/01/24 02:40:30;;;;;;;;;;;;;;;1.48;86.56;100513.31;5117321;28;19970;-69
2022/01/24 02:48:28;;;;;;;;;;;;;;;1.20;87.53;100499.38;5116683;28;20374;-69
2022/01/24 02:53:40;;;;;;;;;;;;;;;1.14;87.51;100489.25;5116692;28;19923;-66
2022/01/24 02:56:07;;;;;;;;;;;;;;;1.10;88.12;100501.28;5116919;28;19928;-69
2022/01/24 02:58:34;;;;;;;;;;;;;;;1.09;87.96;100497.88;5116641;28;19931;-69
2022/01/24 03:01:00;;;;;;;;;;;;;;;1.12;87.76;100496.13;5116579;28;20374;-69
2022/01/24 03:03:27;;;;;;;;;;;;;;;1.09;88.42;100492.75;5116525;28;19931;-68
2022/01/24 03:05:54;;;;;;;;;;;;;;;1.06;87.60;100505.63;5116940;28;19923;-67
2022/01/24 03:08:22;;;;;;;;;;;;;;;1.05;87.95;100486.03;5116752;28;19924;-66
2022/01/24 03:10:52;;;;;;;;;;;;;;;1.00;87.58;100500.63;5117011;28;19977;-69
2022/01/24 03:13:30;;;;;;;;;;;;;;;0.93;88.46;100495.66;5116117;28;19923;-69
2022/01/24 03:15:58;;;;;;;;;;;;;;;0.95;88.48;100496.47;5116212;28;19979;-68
2022/01/24 03:18:24;;;;;;;;;;;;;;;0.77;89.34;100495.97;5116095;28;19931;-69
2022/01/24 03:20:51;;;;;;;;;;;;;;;0.74;89.62;100488.31;5115933;28;19931;-68
2022/01/24 03:23:21;;;;;;;;;;;;;;;0.57;89.79;100486.06;5115964;28;20428;-68
2022/01/24 03:25:48;;;;;;;;;;;;;;;0.46;90.45;100471.75;5116032;28;19924;-67
2022/01/24 03:28:16;;;;;;;;;;;;;;;0.40;90.30;100478.69;5116021;28;19924;-69
2022/01/24 03:30:43;;;;;;;;;;;;;;;0.36;90.83;100473.63;5115986;28;19924;-64
2022/01/24 03:33:10;;;;;;;;;;;;;;;0.23;91.31;100470.44;5115689;28;19924;-68
2022/01/24 03:35:37;;;;;;;;;;;;;;;0.30;90.53;100476.31;5115978;28;19947;-64
2022/01/24 03:38:04;;;;;;;;;;;;;;;0.29;91.67;100480.59;5116004;28;20290;-65
2022/01/24 03:40:30;;;;;;;;;;;;;;;0.31;91.04;100488.22;5114357;28;20400;-69
2022/01/24 03:42:57;;;;;;;;;;;;;;;0.28;90.50;100476.31;5115503;28;20325;-69
2022/01/24 03:45:37;;;;;;;;;;;;;;;0.17;91.11;100476.50;5115473;28;20279;-67
2022/01/24 03:48:08;;;;;;;;;;;;;;;0.13;90.88;100477.47;5115750;28;19923;-69
2022/01/24 03:50:34;;;;;;;;;;;;;;;0.13;91.08;100490.25;5115780;28;20020;-70
2022/01/24 03:53:01;;;;;;;;;;;;;;;0.18;91.20;100480.78;5115496;28;19931;-69
2022/01/24 03:55:28;;;;;;;;;;;;;;;0.14;91.09;100484.25;5115608;28;19947;-67
2022/01/24 03:57:54;;;;;;;;;;;;;;;0.09;91.55;100478.38;5115730;28;20299;-69
2022/01/24 04:00:21;;;;;;;;;;;;;;;0.03;91.35;100478.47;5115266;28;19930;-67
2022/01/24 04:02:49;;;;;;;;;;;;;;;0.04;91.88;100477.59;5115524;28;19923;-69
2022/01/24 04:05:16;;;;;;;;;;;;;;;0.05;91.90;100471.59;5115323;28;19924;-69
2022/01/24 04:07:42;;;;;;;;;;;;;;;0.03;91.84;100473.34;5115098;28;19924;-68
2022/01/24 04:10:10;;;;;;;;;;;;;;;-0.01;92.20;100464.03;5094446;22;19928;-67
2022/01/24 04:12:39;;;;;;;;;;;;;;;0.05;92.00;100463.09;5054719;28;19925;-68
2022/01/24 04:15:14;;;;;;;;;;;;;;;-0.02;92.36;100464.91;5054400;28;20294;-68
2022/01/24 04:17:44;;;;;;;;;;;;;;;0.00;92.38;100468.28;5054372;28;20448;-68
2022/01/24 04:22:58;;;;;;;;;;;;;;;0.10;91.89;100448.50;5054208;28;19971;-68
2022/01/24 04:25:25;;;;;;;;;;;;;;;0.17;92.18;100444.97;5054032;28;19932;-69
2022/01/24 04:27:52;;;;;;;;;;;;;;;0.16;91.73;100449.25;5054099;28;20314;-69
2022/01/24 04:30:19;;;;;;;;;;;;;;;0.21;91.37;100436.38;5054053;28;19928;-67
2022/01/24 04:32:45;;;;;;;;;;;;;;;0.19;91.21;100431.28;5053820;28;19925;-68
2022/01/24 04:35:13;;;;;;;;;;;;;;;0.18;91.38;100428.75;5054365;28;19925;-68
2022/01/24 04:37:40;;;;;;;;;;;;;;;0.11;91.90;100424.63;5054231;28;19931;-69
2022/01/24 04:40:08;;;;;;;;;;;;;;;0.11;92.24;100427.19;5054480;28;19939;-69
2022/01/24 04:42:43;;;;;;;;;;;;;;;0.06;91.62;100432.38;5054003;28;19948;-68
2022/01/24 04:45:36;;;;;;;;;;;;;;;0.03;92.13;100436.69;5054025;28;19925;-69
2022/01/24 04:53:50;;;;;;;;;;;;;;;-0.19;92.21;100423.41;5053392;28;20115;-69
2022/01/24 04:56:17;;;;;;;;;;;;;;;-0.34;92.55;100429.59;5053584;28;19925;-70
2022/01/24 04:58:43;;;;;;;;;;;;;;;-0.49;92.92;100434.09;5053565;28;19925;-68
2022/01/24 05:01:12;;;;;;;;;;;;;;;-0.40;93.81;100443.31;5052821;28;21321;-69
2022/01/24 05:03:39;;;;;;;;;;;;;;;-0.40;93.54;100435.66;5053662;28;19929;-69
2022/01/24 05:06:07;;;;;;;;;;;;;;;-0.45;93.59;100428.06;5053374;28;19936;-69
2022/01/24 05:08:33;;;;;;;;;;;;;;;-0.46;93.59;100420.44;5053256;28;19929;-68
2022/01/24 05:11:05;;;;;;;;;;;;;;;-0.46;92.82;100420.44;5101500;22;19924;-63
2022/01/24 05:23:26;;;;;;;;;;;;;;;-0.63;93.75;100413.00;5093575;28;20296;-63
2022/01/24 05:24:44;;;;;;;;;;;;;;;-0.60;93.98;100409.56;5093120;28;20442;-65
2022/01/24 05:27:11;;;;;;;;;;;;;;;-0.49;93.98;100415.34;5093338;28;20271;-61
2022/01/24 05:29:37;;;;;;;;;;;;;;;-0.44;93.68;100423.78;5093037;28;19931;-67
2022/01/24 05:32:05;;;;;;;;;;;;;;;-0.41;93.30;100402.44;5093294;28;19928;-62
2022/01/24 05:34:31;;;;;;;;;;;;;;;-0.48;93.66;100384.66;5092927;28;20422;-62
2022/01/24 05:36:59;;;;;;;;;;;;;;;-0.48;93.20;100382.09;5093018;28;19924;-65
2022/01/24 05:39:26;;;;;;;;;;;;;;;-0.39;93.43;100395.59;5092972;28;19931;-62
2022/01/24 05:41:52;;;;;;;;;;;;;;;-0.38;92.94;100385.38;5092973;28;19935;-66
2022/01/24 05:44:19;;;;;;;;;;;;;;;-0.41;92.85;100384.53;5092863;28;20389;-64
2022/01/24 05:46:46;;;;;;;;;;;;;;;-0.46;93.21;100376.97;5092878;28;19924;-61
2022/01/24 05:49:12;;;;;;;;;;;;;;;-0.47;93.02;100381.22;5093288;28;19932;-65
2022/01/24 05:51:39;;;;;;;;;;;;;;;-0.49;93.09;100388.09;5092964;28;19924;-61
2022/01/24 05:54:07;;;;;;;;;;;;;;;-0.49;93.18;100372.75;5092804;28;19927;-64
2022/01/24 05:56:34;;;;;;;;;;;;;;;-0.51;93.00;100373.66;5092933;28;19969;-65
2022/01/24 05:59:01;;;;;;;;;;;;;;;-0.51;92.90;100386.44;5092621;28;19928;-64
2022/01/24 06:01:27;;;;;;;;;;;;;;;-0.56;93.18;100368.59;5092804;28;19931;-68
2022/01/24 06:03:54;;;;;;;;;;;;;;;-0.60;93.55;100366.94;5092298;28;19924;-65
2022/01/24 06:06:20;;;;;;;;;;;;;;;-0.59;93.82;100355.00;5092839;28;19924;-62
2022/01/24 06:08:47;;;;;;;;;;;;;;;-0.64;93.55;100346.56;5093182;28;19924;-63
2022/01/24 06:11:15;;;;;;;;;;;;;;;-0.66;93.61;100336.38;5092403;28;19924;-61
2022/01/24 06:13:43;;;;;;;;;;;;;;;-0.69;94.07;100329.63;5092475;28;20325;-65
2022/01/24 06:16:09;;;;;;;;;;;;;;;-0.70;94.39;100329.63;5092265;28;19928;-66
2022/01/24 06:18:36;;;;;;;;;;;;;;;-0.71;94.45;100328.78;5092561;28;19925;-62
2022/01/24 06:21:03;;;;;;;;;;;;;;;-0.78;94.08;100329.75;5092359;28;19935;-62
2022/01/24 06:23:29;;;;;;;;;;;;;;;-0.79;94.11;100317.84;5092587;28;19931;-62
2022/01/24 06:25:56;;;;;;;;;;;;;;;-0.81;94.36;100326.41;5092334;28;19924;-61
2022/01/24 06:28:24;;;;;;;;;;;;;;;-0.82;93.96;100325.56;5092350;28;19924;-62
2022/01/24 06:30:50;;;;;;;;;;;;;;;-0.86;94.47;100312.84;5092298;28;19925;-61
2022/01/24 06:33:17;;;;;;;;;;;;;;;-0.87;94.00;100314.56;5092709;28;19924;-62
2022/01/24 06:35:43;;;;;;;;;;;;;;;-0.86;94.64;100323.06;5092732;28;20305;-62
2022/01/24 06:38:10;;;;;;;;;;;;;;;-0.90;94.21;100312.91;5092385;28;19931;-65
2022/01/24 06:40:36;;;;;;;;;;;;;;;-0.97;94.25;100325.78;5092355;28;19931;-62
2022/01/24 06:43:03;;;;;;;;;;;;;;;-0.95;94.29;100316.38;5092336;28;19924;-63
2022/01/24 06:45:31;;;;;;;;;;;;;;;-0.96;93.98;100305.31;5092113;28;19924;-62
2022/01/24 06:47:58;;;;;;;;;;;;;;;-0.94;94.14;100307.88;5092070;28;19924;-63
2022/01/24 06:50:24;;;;;;;;;;;;;;;-0.95;94.25;100295.94;5092328;28;19924;-63
2022/01/24 06:52:51;;;;;;;;;;;;;;;-0.99;94.36;100294.31;5092583;28;19924;-62
2022/01/24 06:55:18;;;;;;;;;;;;;;;-0.99;94.09;100294.31;5092244;28;19932;-62
2022/01/24 06:57:44;;;;;;;;;;;;;;;-0.94;94.61;100298.50;5088246;28;20263;-64
2022/01/24 07:00:11;;;;;;;;;;;;;;;-0.94;94.51;100275.50;5089933;28;19924;-62
2022/01/24 07:02:39;;;;;;;;;;;;;;;-0.95;94.51;100289.16;5088224;28;19969;-63
2022/01/24 07:05:06;;;;;;;;;;;;;;;-0.92;94.50;100290.81;5090561;28;19931;-64
2022/01/24 07:07:33;;;;;;;;;;;;;;;-0.94;94.42;100272.94;5090491;28;19928;-62
2022/01/24 07:10:00;;;;;;;;;;;;;;;-0.97;94.78;100285.78;5091232;28;19924;-62
2022/01/24 07:12:26;;;;;;;;;;;;;;;-0.94;94.58;100262.72;5091705;28;19928;-63
2022/01/24 07:14:54;;;;;;;;;;;;;;;-0.95;94.21;100249.97;5092260;28;19931;-62
2022/01/24 07:17:34;;;;;;;;;;;;;;;-0.95;94.59;100238.06;5094039;28;19924;-65
2022/01/24 07:20:02;;;;;;;;;;;;;;;-0.95;94.88;100239.75;5094820;28;19924;-66
2022/01/24 07:22:28;;;;;;;;;;;;;;;-0.89;93.96;100237.13;5095111;28;19935;-61
2022/01/24 07:24:55;;;;;;;;;;;;;;;-0.88;94.06;100233.69;5093534;28;19932;-63
2022/01/24 07:27:22;;;;;;;;;;;;;;;-0.92;94.51;100215.03;5094026;28;20358;-66
2022/01/24 07:29:48;;;;;;;;;;;;;;;-0.92;94.70;100226.97;5093618;28;19935;-64
2022/01/24 07:32:15;;;;;;;;;;;;;;;-0.92;94.21;100232.06;5094291;28;19928;-66
2022/01/24 07:34:42;;;;;;;;;;;;;;;-0.91;94.03;100223.53;5093705;28;19935;-63
2022/01/24 07:37:10;;;;;;;;;;;;;;;-0.95;94.59;100217.66;5094343;28;20045;-64
2022/01/24 07:39:36;;;;;;;;;;;;;;;-0.95;94.49;100217.66;5094800;28;19931;-68
2022/01/24 07:42:14;;;;;;;;;;;;;;;-0.92;93.89;100215.03;5093688;28;19932;-67
2022/01/24 07:44:41;;;;;;;;;;;;;;;-0.95;94.09;100219.31;5093783;28;19966;-67
2022/01/24 07:47:08;;;;;;;;;;;;;;;-0.97;94.43;100227.03;5093415;28;19928;-67
2022/01/24 07:49:35;;;;;;;;;;;;;;;-0.93;94.29;100213.31;5094407;28;19924;-67
2022/01/24 07:52:02;;;;;;;;;;;;;;;-0.93;94.17;100209.94;5092680;28;19930;-68
2022/01/24 07:54:30;;;;;;;;;;;;;;;-0.94;94.20;100208.25;5093871;28;19924;-68
2022/01/24 07:56:56;;;;;;;;;;;;;;;-0.94;94.05;100204.00;5094400;28;19947;-67
2022/01/24 07:59:23;;;;;;;;;;;;;;;-0.91;94.01;100214.16;5093727;28;19924;-66
2022/01/24 08:01:50;;;;;;;;;;;;;;;-0.91;94.20;100211.59;5093800;28;19931;-66
2022/01/24 08:04:17;;;;;;;;;;;;;;;-0.93;93.69;100210.78;5092720;28;19928;-67
2022/01/24 08:06:46;;;;;;;;;;;;;;;-0.90;93.81;100199.66;5094138;28;20306;-65
2022/01/24 08:09:13;;;;;;;;;;;;;;;-0.92;94.02;100196.31;5093371;28;19965;-68
2022/01/24 08:11:41;;;;;;;;;;;;;;;-0.97;93.98;100178.50;5092897;28;19924;-62
2022/01/24 08:14:08;;;;;;;;;;;;;;;-0.96;93.71;100180.19;5093719;28;19928;-65
2022/01/24 08:16:35;;;;;;;;;;;;;;;-0.93;93.92;100190.34;5093929;28;19970;-63
2022/01/24 08:19:01;;;;;;;;;;;;;;;-0.99;93.95;100185.34;5091650;28;19925;-67
2022/01/24 08:21:28;;;;;;;;;;;;;;;-0.96;93.87;100181.91;5093427;28;19947;-68
2022/01/24 08:23:56;;;;;;;;;;;;;;;-0.96;93.92;100171.69;5093781;28;19931;-67
2022/01/24 08:26:23;;;;;;;;;;;;;;;-0.91;93.49;100173.28;5093128;28;19935;-64
2022/01/24 08:28:51;;;;;;;;;;;;;;;-0.86;93.34;100170.66;5092803;28;19963;-65
2022/01/24 08:31:17;;;;;;;;;;;;;;;-0.82;93.17;100159.53;5092752;28;19928;-67
2022/01/24 08:33:44;;;;;;;;;;;;;;;-0.83;93.18;100162.94;5093718;28;19924;-64
2022/01/24 08:36:11;;;;;;;;;;;;;;;-0.88;93.22;100159.63;5092347;28;20001;-67
2022/01/24 08:38:38;;;;;;;;;;;;;;;-0.88;93.57;100155.34;5091937;28;19924;-68
2022/01/24 08:41:10;;;;;;;;;;;;;;;-0.90;93.40;100151.13;5093214;28;19932;-66
2022/01/24 08:43:50;;;;;;;;;;;;;;;-0.89;93.19;100152.84;5094109;28;19931;-64
2022/01/24 08:46:18;;;;;;;;;;;;;;;-0.85;93.10;100151.06;5091851;28;19931;-67
2022/01/24 08:48:46;;;;;;;;;;;;;;;-0.83;92.96;100144.22;5092875;28;19924;-68
2022/01/24 08:51:13;;;;;;;;;;;;;;;-0.84;92.66;100147.66;5093174;28;20014;-66
2022/01/24 08:53:39;;;;;;;;;;;;;;;-0.86;93.17;100150.22;5092169;28;19932;-68
2022/01/24 08:56:07;;;;;;;;;;;;;;;-0.81;92.66;100156.09;5092125;28;20263;-68
2022/01/24 08:58:35;;;;;;;;;;;;;;;-0.81;92.93;100151.00;5092836;28;20282;-66
2022/01/24 09:01:02;;;;;;;;;;;;;;;-0.80;93.04;100151.81;5093355;28;19924;-69
2022/01/24 09:03:35;;;;;;;;;;;;;;;-0.81;92.63;100155.25;5091825;28;19924;-69
2022/01/24 09:06:02;;;;;;;;;;;;;;;-0.79;92.63;100143.31;5092014;28;19924;-68
2022/01/24 09:08:30;;;;;;;;;;;;;;;-0.77;92.34;100131.31;5093086;28;19931;-67
2022/01/24 09:10:57;;;;;;;;;;;;;;;-0.79;92.71;100121.16;5093282;28;19928;-67
2022/01/24 09:13:23;;;;;;;;;;;;;;;-0.77;92.79;100119.41;5091445;28;20286;-68
2022/01/24 09:15:50;;;;;;;;;;;;;;;-0.74;92.76;100121.91;5092338;28;19924;-68
2022/01/24 09:18:19;;;;;;;;;;;;;;;-0.76;92.29;100130.47;5092168;28;19924;-69
2022/01/24 09:20:49;;;;;;;;;;;;;;;-0.73;92.41;100127.84;5092395;28;20386;-68
2022/01/24 09:23:15;;;;;;;;;;;;;;;-0.71;92.19;100121.00;5091491;28;19932;-66
2022/01/24 09:25:42;;;;;;;;;;;;;;;-0.74;92.59;100127.03;5092139;28;19979;-63
2022/01/24 09:28:09;;;;;;;;;;;;;;;-0.70;92.29;100112.47;5092691;28;19931;-67
2022/01/24 09:30:35;;;;;;;;;;;;;;;-0.71;92.45;100108.25;5090681;28;19924;-67
2022/01/24 09:33:02;;;;;;;;;;;;;;;-0.71;92.54;100095.47;5091660;28;19924;-65
2022/01/24 09:35:29;;;;;;;;;;;;;;;-0.74;92.71;100083.59;5092588;28;19932;-63
2022/01/24 09:37:57;;;;;;;;;;;;;;;-0.72;92.69;100076.75;5092516;28;20026;-62
2022/01/24 09:40:23;;;;;;;;;;;;;;;-0.72;92.47;100073.31;5091169;28;19931;-62
2022/01/24 09:42:50;;;;;;;;;;;;;;;-0.69;92.68;100091.19;5091763;28;19932;-67
2022/01/24 09:45:18;;;;;;;;;;;;;;;-0.68;92.86;100097.94;5091883;28;19968;-68
2022/01/24 09:47:45;;;;;;;;;;;;;;;-0.64;92.24;100097.03;5092175;28;20424;-62
2022/01/24 09:50:13;;;;;;;;;;;;;;;-0.63;92.29;100110.66;5090198;28;19931;-62
2022/01/24 09:52:41;;;;;;;;;;;;;;;-0.59;92.41;100125.03;5092023;28;20301;-62
2022/01/24 09:55:10;;;;;;;;;;;;;;;-0.55;92.40;100137.72;5091949;28;19964;-63
2022/01/24 09:57:36;;;;;;;;;;;;;;;-0.58;92.35;100126.72;5091348;28;20278;-64
2022/01/24 10:00:03;;;;;;;;;;;;;;;-0.57;91.91;100129.25;5089728;28;20302;-63
2022/01/24 10:02:30;;;;;;;;;;;;;;;-0.58;92.12;100129.28;5090801;28;19924;-63
2022/01/24 10:05:12;;;;;;;;;;;;;;;-0.57;92.44;100133.50;5092724;28;20404;-63
2022/01/24 10:07:39;;;;;;;;;;;;;;;-0.58;92.33;100134.41;5089740;28;20305;-62
2022/01/24 10:10:06;;;;;;;;;;;;;;;-0.59;92.63;100131.00;5092031;28;19924;-62
2022/01/24 10:16:24;;;;;;;;;;;;;;;-0.63;92.64;100136.19;5091538;28;20263;-66
2022/01/24 10:18:07;;;;;;;;;;;;;;;-0.64;93.17;100126.84;5091409;28;20290;-62
2022/01/24 10:20:35;;;;;;;;;;;;;;;-0.57;92.35;100118.19;5091579;28;19924;-62
2022/01/24 10:23:07;;;;;;;;;;;;;;;-0.58;92.73;100106.28;5092930;28;19931;-62
2022/01/24 10:25:45;;;;;;;;;;;;;;;-0.52;92.29;100118.94;5089699;28;20401;-67
2022/01/24 10:28:21;;;;;;;;;;;;;;;-0.42;91.95;100125.56;5091250;28;19924;-62
2022/01/24 10:30:50;;;;;;;;;;;;;;;-0.40;91.65;100126.38;5091660;28;19924;-68
2022/01/24 10:33:16;;;;;;;;;;;;;;;-0.34;91.91;100117.72;5091529;28;20370;-62
2022/01/24 10:35:46;;;;;;;;;;;;;;;-0.37;92.31;100118.63;5090772;28;20390;-62
2022/01/24 10:38:15;;;;;;;;;;;;;;;-0.31;91.92;100121.09;5091203;28;19924;-69
2022/01/24 10:40:51;;;;;;;;;;;;;;;-0.32;91.96;100119.38;5090286;28;19932;-61
2022/01/24 10:43:22;;;;;;;;;;;;;;;-0.25;92.12;100115.81;5089732;28;19924;-63
2022/01/24 10:45:49;;;;;;;;;;;;;;;-0.26;91.86;100110.72;5090459;28;19947;-63
2022/01/24 10:48:20;;;;;;;;;;;;;;;-0.20;92.16;100109.78;5091198;28;20378;-62
2022/01/24 10:50:47;;;;;;;;;;;;;;;-0.15;91.95;100120.75;5094825;28;19924;-62
2022/01/24 10:53:15;;;;;;;;;;;;;;;-0.11;91.99;100119.81;5094028;28;19924;-62
2022/01/24 10:55:43;;;;;;;;;;;;;;;-0.09;91.59;100125.72;5095542;28;19924;-61
2022/01/24 10:58:13;;;;;;;;;;;;;;;-0.06;91.47;100120.56;5095073;28;19998;-65
2022/01/24 11:00:41;;;;;;;;;;;;;;;-0.03;91.61;100130.72;5094677;28;19932;-69
2022/01/24 11:03:16;;;;;;;;;;;;;;;0.06;90.79;100130.53;5093816;28;19975;-66
2022/01/24 11:05:43;;;;;;;;;;;;;;;0.12;90.28;100124.44;5094249;28;19932;-69
2022/01/24 11:08:11;;;;;;;;;;;;;;;0.26;89.90;100121.53;5095676;28;19967;-62
2022/01/24 11:10:38;;;;;;;;;;;;;;;0.29;89.90;100098.47;5095542;28;20378;-62
2022/01/24 11:13:06;;;;;;;;;;;;;;;0.31;90.25;100099.25;5094274;28;20311;-63
2022/01/24 11:15:33;;;;;;;;;;;;;;;0.34;89.36;100106.88;5091862;28;19928;-66
2022/01/24 11:18:01;;;;;;;;;;;;;;;0.34;90.16;100087.25;5094163;28;19931;-64
2022/01/24 11:20:31;;;;;;;;;;;;;;;0.36;89.49;100093.16;5093562;28;19931;-68
2022/01/24 11:23:01;;;;;;;;;;;;;;;0.42;89.75;100102.41;5095603;28;20274;-64
2022/01/24 11:25:28;;;;;;;;;;;;;;;0.46;89.37;100098.88;5093926;28;20381;-68
2022/01/24 11:27:55;;;;;;;;;;;;;;;0.51;89.66;100097.06;5093783;28;19939;-63
2022/01/24 11:30:22;;;;;;;;;;;;;;;0.54;89.19;100108.94;5094356;28;19924;-68
2022/01/24 11:32:51;;;;;;;;;;;;;;;0.60;89.04;100089.16;5095483;28;19928;-69
2022/01/24 11:35:35;;;;;;;;;;;;;;;0.68;88.32;100101.78;5093541;28;19931;-62
2022/01/24 11:38:02;;;;;;;;;;;;;;;0.70;88.65;100089.78;5094132;28;19931;-63
2022/01/24 11:40:44;;;;;;;;;;;;;;;0.78;88.38;100084.47;5094196;28;19924;-65
2022/01/24 11:43:24;;;;;;;;;;;;;;;0.78;88.35;100079.34;5093857;28;19932;-66
2022/01/24 11:46:01;;;;;;;;;;;;;;;0.83;87.99;100085.19;5093760;28;19932;-64
2022/01/24 11:48:27;;;;;;;;;;;;;;;0.89;88.52;100084.19;5093875;28;19928;-64
2022/01/24 11:51:00;;;;;;;;;;;;;;;0.90;88.40;100091.84;5094976;28;19924;-65
2022/01/24 11:53:28;;;;;;;;;;;;;;;1.03;87.97;100082.13;5092822;28;19982;-68
2022/01/24 11:55:55;;;;;;;;;;;;;;;1.04;87.41;100074.38;5093057;28;19970;-65
2022/01/24 11:58:23;;;;;;;;;;;;;;;1.09;86.69;100075.09;5094245;28;19967;-62
2022/01/24 12:00:52;;;;;;;;;;;;;;;1.14;86.80;100085.22;5093275;28;19967;-64
2022/01/24 12:03:23;;;;;;;;;;;;;;;1.13;86.97;100090.38;5092961;28;20367;-62
2022/01/24 12:05:51;;;;;;;;;;;;;;;1.13;86.79;100093.81;5093319;28;19931;-68
2022/01/24 12:08:29;;;;;;;;;;;;;;;1.21;86.44;100096.16;5094370;28;19924;-69
2022/01/24 12:10:58;;;;;;;;;;;;;;;1.18;86.50;100093.66;5093191;28;19935;-69
2022/01/24 12:13:28;;;;;;;;;;;;;;;1.17;87.12;100085.13;5092578;28;19930;-66
2022/01/24 12:15:56;;;;;;;;;;;;;;;1.16;86.87;100095.44;5092913;28;19947;-63
2022/01/24 12:18:43;;;;;;;;;;;;;;;1.13;87.00;100086.13;5093987;28;19924;-67
2022/01/24 12:21:10;;;;;;;;;;;;;;;1.07;86.98;100078.59;5092835;28;19967;-68
2022/01/24 12:23:40;;;;;;;;;;;;;;;1.02;87.27;100088.94;5094021;28;19924;-67
2022/01/24 12:26:08;;;;;;;;;;;;;;;1.01;87.64;100094.97;5093539;28;20007;-68
2022/01/24 12:28:45;;;;;;;;;;;;;;;1.08;87.45;100099.06;5092568;28;20282;-68
2022/01/24 12:31:19;;;;;;;;;;;;;;;1.11;87.18;100099.84;5093008;28;19939;-63
2022/01/24 12:33:56;;;;;;;;;;;;;;;1.09;87.33;100103.28;5092341;28;19963;-66
2022/01/24 12:36:48;;;;;;;;;;;;;;;1.10;87.22;100093.88;5094040;28;19924;-67
2022/01/24 12:39:18;;;;;;;;;;;;;;;1.06;87.64;100082.88;5091757;28;19932;-67
2022/01/24 12:41:47;;;;;;;;;;;;;;;1.00;87.31;100095.84;5092566;28;19928;-68
2022/01/24 12:46:56;;;;;;;;;;;;;;;0.94;88.28;100102.84;5091092;28;20014;-64
2022/01/24 12:49:22;;;;;;;;;;;;;;;0.92;88.60;100097.75;5091394;28;20382;-67
2022/01/24 12:51:49;;;;;;;;;;;;;;;0.90;88.69;100106.34;5092480;28;19924;-64
2022/01/24 12:54:17;;;;;;;;;;;;;;;0.83;88.40;100103.13;5093845;28;19931;-65
2022/01/24 12:56:44;;;;;;;;;;;;;;;0.80;88.85;100114.28;5091418;28;19924;-64
2022/01/24 12:59:11;;;;;;;;;;;;;;;0.75;88.95;100122.97;5092356;28;19924;-63
2022/01/24 13:01:38;;;;;;;;;;;;;;;0.72;89.08;100113.66;5091807;28;19924;-63
2022/01/24 13:04:10;;;;;;;;;;;;;;;0.71;88.98;100117.06;5091621;28;19924;-63
2022/01/24 13:06:38;;;;;;;;;;;;;;;0.71;89.70;100117.06;5091789;28;19982;-67
2022/01/24 13:09:05;;;;;;;;;;;;;;;0.72;89.45;100112.78;5092729;28;19924;-65
2022/01/24 13:11:44;;;;;;;;;;;;;;;0.70;89.47;100123.06;5093108;28;19993;-65
2022/01/24 13:14:14;;;;;;;;;;;;;;;0.70;89.67;100127.38;5091814;28;19924;-63
2022/01/24 13:22:15;;;;;;;;;;;;;;;0.61;89.57;100130.97;5091684;28;19939;-65
2022/01/24 13:25:01;;;;;;;;;;;;;;;0.59;89.89;100123.34;5092191;28;19939;-62
2022/01/24 13:27:35;;;;;;;;;;;;;;;0.56;89.46;100130.22;5092091;28;19932;-63
2022/01/24 13:30:02;;;;;;;;;;;;;;;0.53;89.95;100123.47;5092868;28;20025;-62
2022/01/24 13:32:46;;;;;;;;;;;;;;;0.50;89.72;100121.00;5090686;28;20385;-62
2022/01/24 13:35:16;;;;;;;;;;;;;;;0.53;89.42;100112.41;5083931;28;20011;-63
2022/01/24 13:37:43;;;;;;;;;;;;;;;0.50;89.76;100100.50;5091342;28;19925;-61
2022/01/24 13:40:10;;;;;;;;;;;;;;;0.45;90.40;100099.78;5091917;28;19924;-62
2022/01/24 13:42:38;;;;;;;;;;;;;;;0.39;90.09;100105.88;5091479;28;19935;-62
2022/01/24 13:45:05;;;;;;;;;;;;;;;0.38;90.73;100118.72;5091422;28;20259;-67
2022/01/24 13:47:32;;;;;;;;;;;;;;;0.31;90.47;100115.47;5092224;28;20290;-64
2022/01/24 13:49:59;;;;;;;;;;;;;;;0.28;90.59;100107.84;5091168;28;19947;-62
2022/01/24 13:52:26;;;;;;;;;;;;;;;0.23;91.34;100107.09;5091162;28;19931;-66
2022/01/24 13:54:52;;;;;;;;;;;;;;;0.24;90.91;100108.81;5092181;28;19985;-62
2022/01/24 13:57:19;;;;;;;;;;;;;;;0.20;91.59;100120.81;5092034;28;19931;-62
2022/01/24 13:59:47;;;;;;;;;;;;;;;0.21;91.70;100121.69;5090373;28;19947;-63
2022/01/24 14:02:15;;;;;;;;;;;;;;;0.10;92.02;100115.94;5091347;28;19931;-67